createdAt,value
2018-04-15T00:01:03.353Z,101134.29
2018-04-15T00:03:32.415Z,101127.63
2018-04-15T00:06:00.764Z,101128.92
2018-04-15T00:08:29.083Z,101120.50
2018-04-15T00:10:57.441Z,101120.53
2018-04-15T00:13:25.755Z,101120.05
2018-04-15T00:15:54.854Z,101120.55
2018-04-15T00:18:23.993Z,101112.25
2018-04-15T00:20:52.321Z,101118.87
2018-04-15T00:23:20.670Z,101118.02
2018-04-15T00:25:48.976Z,101116.77
2018-04-15T00:28:17.330Z,101120.75
2018-04-15T00:30:45.647Z,101119.08
2018-04-15T00:33:14.757Z,101117.03
2018-04-15T00:35:43.132Z,101111.02
2018-04-15T00:38:11.864Z,101107.53
2018-04-15T00:40:40.202Z,101109.72
2018-04-15T00:43:08.591Z,101108.40
2018-04-15T00:45:36.920Z,101106.19
2018-04-15T00:48:05.247Z,101098.27
2018-04-15T00:50:33.609Z,101096.85
2018-04-15T00:53:03.094Z,101100.70
2018-04-15T00:55:32.213Z,101095.50
2018-04-15T00:58:00.532Z,101095.58
2018-04-15T01:00:28.876Z,101096.52
2018-04-15T01:02:57.222Z,101089.97
2018-04-15T01:05:26.285Z,101086.48
2018-04-15T01:07:54.659Z,101078.16
2018-04-15T01:10:22.995Z,101076.83
2018-04-15T01:12:51.325Z,101067.62
2018-04-15T01:15:19.687Z,101062.30
2018-04-15T01:17:48.024Z,101063.10
2018-04-15T01:20:16.394Z,101061.34
2018-04-15T01:22:44.758Z,101062.66
2018-04-15T01:25:13.849Z,101063.62
2018-04-15T01:27:42.933Z,101060.53
2018-04-15T01:30:12.283Z,101064.52
2018-04-15T01:32:40.658Z,101062.78
2018-04-15T01:35:08.979Z,101063.17
2018-04-15T01:37:37.332Z,101061.25
2018-04-15T01:40:05.685Z,101058.09
2018-04-15T01:42:33.992Z,101053.16
2018-04-15T01:45:02.342Z,101057.48
2018-04-15T01:47:30.698Z,101061.00
2018-04-15T01:49:59.038Z,101056.59
2018-04-15T01:52:27.347Z,101051.70
2018-04-15T01:54:57.225Z,101055.69
2018-04-15T01:57:25.553Z,101054.83
2018-04-15T01:59:53.910Z,101053.05
2018-04-15T02:02:23.005Z,101050.41
2018-04-15T02:04:52.137Z,101051.36
2018-04-15T02:07:20.453Z,101050.07
2018-04-15T02:09:48.811Z,101055.80
2018-04-15T02:12:17.137Z,101049.61
2018-04-15T02:14:46.238Z,101043.92
2018-04-15T02:17:15.358Z,101046.19
2018-04-15T02:19:43.661Z,101044.01
2018-04-15T02:22:12.414Z,101032.13
2018-04-15T02:24:40.735Z,101036.10
2018-04-15T02:27:09.871Z,101030.80
2018-04-15T02:29:38.203Z,101029.06
2018-04-15T02:32:06.572Z,101024.64
2018-04-15T02:34:34.912Z,101030.80
2018-04-15T02:37:03.277Z,101031.23
2018-04-15T02:39:31.612Z,101032.02
2018-04-15T02:41:59.960Z,101020.42
2018-04-15T02:44:28.311Z,101015.59
2018-04-15T02:46:56.651Z,101014.33
2018-04-15T02:49:25.027Z,101009.06
2018-04-15T02:51:53.374Z,101009.52
2018-04-15T02:54:22.459Z,101009.50
2018-04-15T02:56:50.814Z,101012.56
2018-04-15T02:59:19.905Z,101007.70
2018-04-15T03:01:49.783Z,101003.69
2018-04-15T03:04:18.127Z,101005.50
2018-04-15T03:06:46.475Z,100997.47
2018-04-15T03:09:15.607Z,100998.38
2018-04-15T03:11:43.935Z,100997.56
2018-04-15T03:14:12.289Z,100994.91
2018-04-15T03:16:40.634Z,100992.30
2018-04-15T03:19:08.979Z,100991.00
2018-04-15T03:21:38.092Z,100985.72
2018-04-15T03:24:06.437Z,100982.25
2018-04-15T03:26:34.774Z,100975.66
2018-04-15T03:29:03.076Z,100969.97
2018-04-15T03:31:31.418Z,100964.75
2018-04-15T03:34:00.553Z,100969.16
2018-04-15T03:36:28.877Z,100972.70
2018-04-15T03:38:57.179Z,100964.31
2018-04-15T03:41:25.928Z,100966.55
2018-04-15T03:43:55.056Z,100967.52
2018-04-15T03:46:24.138Z,100973.69
2018-04-15T03:48:52.461Z,100980.76
2018-04-15T03:51:20.806Z,100981.63
2018-04-15T03:53:49.157Z,100981.20
2018-04-15T03:56:17.473Z,100974.14
2018-04-15T03:58:45.845Z,100973.70
2018-04-15T04:01:14.164Z,100976.81
2018-04-15T04:03:43.268Z,100976.86
2018-04-15T04:06:12.343Z,100979.99
2018-04-15T04:08:40.682Z,100980.97
2018-04-15T04:11:09.025Z,100969.17
2018-04-15T04:13:38.119Z,100969.27
2018-04-15T04:16:07.222Z,100970.22
2018-04-15T04:18:54.273Z,100968.45
2018-04-15T04:25:09.971Z,100966.59
2018-04-15T04:27:38.293Z,100964.33
2018-04-15T04:30:06.648Z,100964.78
2018-04-15T04:32:34.990Z,100967.41
2018-04-15T04:35:03.329Z,100973.41
2018-04-15T04:37:32.461Z,100965.78
2018-04-15T04:40:00.794Z,100965.75
2018-04-15T04:42:29.135Z,100962.15
2018-04-15T04:44:57.542Z,100966.44
2018-04-15T04:47:25.855Z,100971.59
2018-04-15T04:49:54.229Z,100969.33
2018-04-15T04:52:23.324Z,100964.34
2018-04-15T04:54:51.675Z,100962.45
2018-04-15T04:57:20.534Z,100963.58
2018-04-15T04:59:49.243Z,100967.38
2018-04-15T05:02:17.991Z,100978.17
2018-04-15T05:04:47.099Z,100962.50
2018-04-15T05:07:15.448Z,100965.41
2018-04-15T05:09:43.803Z,100969.61
2018-04-15T05:12:12.889Z,100964.51
2018-04-15T05:14:41.248Z,100972.70
2018-04-15T05:17:09.588Z,100974.80
2018-04-15T05:19:37.909Z,100974.27
2018-04-15T05:22:06.275Z,100973.68
2018-04-15T05:24:34.630Z,100967.93
2018-04-15T05:27:02.977Z,100968.47
2018-04-15T05:29:31.327Z,100974.72
2018-04-15T05:32:02.021Z,100975.67
2018-04-15T05:34:30.371Z,100969.50
2018-04-15T05:36:59.097Z,100981.44
2018-04-15T05:39:27.431Z,100975.61
2018-04-15T05:41:56.529Z,100968.34
2018-04-15T05:44:24.884Z,100957.57
2018-04-15T05:46:53.976Z,100953.75
2018-04-15T05:49:22.349Z,100948.55
2018-04-15T05:51:51.752Z,100949.33
2018-04-15T05:54:20.069Z,100940.75
2018-04-15T05:56:48.459Z,100942.02
2018-04-15T05:59:16.791Z,100949.14
2018-04-15T06:01:45.107Z,100950.28
2018-04-15T06:04:13.465Z,100946.38
2018-04-15T06:06:42.571Z,100950.75
2018-04-15T06:09:10.924Z,100944.67
2018-04-15T06:11:40.052Z,100935.83
2018-04-15T06:14:08.369Z,100933.21
2018-04-15T06:16:36.742Z,100924.23
2018-04-15T06:19:05.063Z,100918.29
2018-04-15T06:21:34.184Z,100921.57
2018-04-15T06:24:02.488Z,100917.55
2018-04-15T06:26:30.988Z,100916.48
2018-04-15T06:28:59.344Z,100908.18
2018-04-15T06:31:27.689Z,100905.94
2018-04-15T06:33:56.028Z,100896.42
2018-04-15T06:36:24.381Z,100884.70
2018-04-15T06:38:52.761Z,100886.59
2018-04-15T06:41:21.132Z,100871.04
2018-04-15T06:43:49.480Z,100869.61
2018-04-15T06:46:17.846Z,100871.03
2018-04-15T06:48:46.196Z,100871.76
2018-04-15T06:51:16.071Z,100857.09
2018-04-15T06:53:44.444Z,100845.73
2018-04-15T06:56:12.771Z,100837.61
2018-04-15T06:58:41.916Z,100841.19
2018-04-15T07:01:10.284Z,100833.76
2018-04-15T07:03:38.616Z,100831.60
2018-04-15T07:06:07.741Z,100821.09
2018-04-15T07:08:36.098Z,100820.56
2018-04-15T07:11:05.199Z,100806.81
2018-04-15T07:13:34.321Z,100800.17
2018-04-15T07:16:02.647Z,100794.81
2018-04-15T07:18:31.040Z,100802.19
2018-04-15T07:20:59.477Z,100800.52
2018-04-15T07:23:28.339Z,100799.78
2018-04-15T07:25:56.703Z,100799.41
2018-04-15T07:28:25.848Z,100797.21
2018-04-15T07:30:54.203Z,100794.83
2018-04-15T07:33:22.528Z,100789.39
2018-04-15T07:35:50.918Z,100789.02
2018-04-15T07:38:20.008Z,100788.07
2018-04-15T07:40:48.322Z,100779.75
2018-04-15T07:43:16.677Z,100779.20
2018-04-15T07:45:45.047Z,100779.46
2018-04-15T07:48:14.155Z,100779.31
2018-04-15T07:50:42.502Z,100780.36
2018-04-15T07:53:10.809Z,100763.11
2018-04-15T07:55:39.174Z,100755.25
2018-04-15T07:58:08.345Z,100771.45
2018-04-15T08:00:36.680Z,100769.00
2018-04-15T08:03:05.003Z,100770.55
2018-04-15T08:05:33.347Z,100768.41
2018-04-15T08:08:02.472Z,100769.06
2018-04-15T08:10:31.188Z,100763.75
2018-04-15T08:12:59.543Z,100764.53
2018-04-15T08:15:27.851Z,100767.96
2018-04-15T08:17:56.980Z,100758.19
2018-04-15T08:20:25.315Z,100749.46
2018-04-15T08:22:53.666Z,100754.48
2018-04-15T08:25:22.103Z,100742.56
2018-04-15T08:27:50.418Z,100742.45
2018-04-15T08:30:18.768Z,100723.83
2018-04-15T08:32:47.107Z,100731.45
2018-04-15T08:35:15.458Z,100728.72
2018-04-15T08:37:43.765Z,100725.33
2018-04-15T08:40:12.996Z,100719.51
2018-04-15T08:42:41.340Z,100723.84
2018-04-15T08:45:09.788Z,100723.18
2018-04-15T08:47:38.157Z,100728.91
2018-04-15T08:50:07.145Z,100730.09
2018-04-15T08:52:35.651Z,100724.41
2018-04-15T08:55:04.767Z,100713.59
2018-04-15T08:57:33.881Z,100701.23
2018-04-15T09:00:02.435Z,100699.09
2018-04-15T09:02:30.787Z,100702.64
2018-04-15T09:05:00.236Z,100697.16
2018-04-15T09:07:28.638Z,100694.47
2018-04-15T09:09:57.105Z,100692.93
2018-04-15T09:12:25.487Z,100693.80
2018-04-15T09:14:53.810Z,100690.73
2018-04-15T09:17:22.173Z,100689.91
2018-04-15T09:19:50.542Z,100680.40
2018-04-15T09:22:18.886Z,100677.05
2018-04-15T09:24:47.275Z,100674.66
2018-04-15T09:27:15.623Z,100673.05
2018-04-15T09:29:44.728Z,100658.83
2018-04-15T09:32:13.810Z,100658.94
2018-04-15T09:34:43.686Z,100658.02
2018-04-15T09:37:11.995Z,100646.53
2018-04-15T09:39:41.101Z,100639.78
2018-04-15T09:42:10.213Z,100642.48
2018-04-15T09:44:38.593Z,100638.57
2018-04-15T09:47:06.912Z,100636.62
2018-04-15T09:49:35.243Z,100635.08
2018-04-15T09:52:03.632Z,100632.28
2018-04-15T09:54:31.960Z,100623.78
2018-04-15T09:57:01.088Z,100621.86
2018-04-15T09:59:29.448Z,100606.68
2018-04-15T10:01:58.581Z,100599.81
2018-04-15T10:04:27.836Z,100602.41
2018-04-15T10:06:56.940Z,100594.72
2018-04-15T10:09:25.968Z,100589.95
2018-04-15T10:11:54.304Z,100589.47
2018-04-15T10:14:23.428Z,100593.80
2018-04-15T10:16:51.792Z,100602.80
2018-04-15T10:19:20.918Z,100598.55
2018-04-15T10:21:49.249Z,100605.36
2018-04-15T10:24:17.624Z,100594.05
2018-04-15T10:26:45.961Z,100597.66
2018-04-15T10:29:14.284Z,100592.59
2018-04-15T10:31:43.421Z,100590.52
2018-04-15T10:34:11.787Z,100588.09
2018-04-15T10:36:40.181Z,100578.30
2018-04-15T10:39:08.506Z,100577.91
2018-04-15T10:41:36.901Z,100575.63
2018-04-15T10:44:06.010Z,100574.57
2018-04-15T10:46:34.368Z,100581.88
2018-04-15T10:49:03.576Z,100577.00
2018-04-15T10:51:32.660Z,100576.20
2018-04-15T10:54:01.880Z,100582.45
2018-04-15T10:56:30.209Z,100586.88
2018-04-15T10:58:58.567Z,100591.09
2018-04-15T11:01:26.941Z,100586.79
2018-04-15T11:03:55.298Z,100591.92
2018-04-15T11:06:23.678Z,100587.02
2018-04-15T11:08:52.007Z,100583.28
2018-04-15T11:11:20.409Z,100578.72
2018-04-15T11:13:49.610Z,100569.42
2018-04-15T11:16:18.741Z,100573.03
2018-04-15T11:18:47.060Z,100567.73
2018-04-15T11:21:15.450Z,100568.14
2018-04-15T11:23:44.626Z,100566.95
2018-04-15T11:26:13.022Z,100570.41
2018-04-15T11:28:42.164Z,100568.16
2018-04-15T11:31:11.652Z,100565.83
2018-04-15T11:33:40.005Z,100565.41
2018-04-15T11:36:09.156Z,100561.85
2018-04-15T11:38:37.502Z,100559.38
2018-04-15T11:41:05.907Z,100549.23
2018-04-15T11:43:34.308Z,100555.85
2018-04-15T11:46:02.653Z,100553.14
2018-04-15T11:48:31.012Z,100545.81
2018-04-15T11:50:59.332Z,100546.88
2018-04-15T11:53:27.693Z,100536.14
2018-04-15T11:55:56.761Z,100532.27
2018-04-15T11:58:25.146Z,100533.28
2018-04-15T12:00:53.586Z,100538.84
2018-04-15T12:03:21.947Z,100534.17
2018-04-15T12:05:50.353Z,100525.92
2018-04-15T12:08:19.449Z,100526.08
2018-04-15T12:10:47.839Z,100515.52
2018-04-15T12:13:16.973Z,100512.73
2018-04-15T12:15:45.329Z,100504.13
2018-04-15T12:18:13.656Z,100500.16
2018-04-15T12:20:42.023Z,100492.97
2018-04-15T12:23:11.136Z,100493.34
2018-04-15T12:25:39.469Z,100487.81
2018-04-15T12:28:07.809Z,100485.72
2018-04-15T12:30:37.036Z,100486.59
2018-04-15T12:33:05.414Z,100485.80
2018-04-15T12:35:33.783Z,100477.27
2018-04-15T12:38:02.180Z,100478.98
2018-04-15T12:40:30.512Z,100478.11
2018-04-15T12:42:58.866Z,100468.02
2018-04-15T12:45:27.246Z,100463.17
2018-04-15T12:47:55.626Z,100460.91
2018-04-15T12:50:23.976Z,100459.23
2018-04-15T12:52:52.324Z,100459.44
2018-04-15T12:55:20.648Z,100463.13
2018-04-15T12:57:49.029Z,100467.00
2018-04-15T13:00:17.361Z,100462.91
2018-04-15T13:02:45.775Z,100447.52
2018-04-15T13:05:14.156Z,100441.73
2018-04-15T13:07:42.487Z,100447.02
2018-04-15T13:10:10.844Z,100443.87
2018-04-15T13:12:39.168Z,100441.02
2018-04-15T13:15:07.528Z,100439.07
2018-04-15T13:17:35.888Z,100438.81
2018-04-15T13:20:05.039Z,100435.24
2018-04-15T13:22:33.436Z,100427.70
2018-04-15T13:25:02.267Z,100433.25
2018-04-15T13:27:30.644Z,100436.14
2018-04-15T13:29:59.005Z,100421.95
2018-04-15T13:32:28.204Z,100428.25
2018-04-15T13:34:57.325Z,100417.80
2018-04-15T13:37:25.689Z,100416.12
2018-04-15T13:39:54.084Z,100423.41
2018-04-15T13:42:22.458Z,100415.56
2018-04-15T13:44:50.783Z,100403.34
2018-04-15T13:47:19.141Z,100397.80
2018-04-15T13:49:47.523Z,100392.82
2018-04-15T13:52:15.865Z,100396.45
2018-04-15T13:54:44.243Z,100384.44
2018-04-15T13:57:12.600Z,100384.95
2018-04-15T13:59:41.891Z,100384.39
2018-04-15T14:02:10.255Z,100389.84
2018-04-15T14:04:38.710Z,100393.73
2018-04-15T14:07:07.058Z,100390.73
2018-04-15T14:09:35.437Z,100388.42
2018-04-15T14:12:03.779Z,100391.10
2018-04-15T14:14:32.120Z,100386.45
2018-04-15T14:17:00.524Z,100388.91
2018-04-15T14:19:28.834Z,100382.84
2018-04-15T14:21:57.221Z,100382.98
2018-04-15T14:24:25.589Z,100391.16
2018-04-15T14:26:53.955Z,100390.30
2018-04-15T14:29:23.031Z,100382.09
2018-04-15T14:31:51.405Z,100377.92
2018-04-15T14:34:19.768Z,100372.00
2018-04-15T14:36:48.083Z,100373.09
2018-04-15T14:39:17.227Z,100369.13
2018-04-15T14:41:45.569Z,100370.02
2018-04-15T14:44:13.953Z,100363.78
2018-04-15T14:46:42.305Z,100362.45
2018-04-15T14:49:10.689Z,100359.37
2018-04-15T14:51:39.061Z,100369.69
2018-04-15T14:54:07.411Z,100355.50
2018-04-15T14:56:35.758Z,100353.50
2018-04-15T14:59:04.236Z,100346.65
2018-04-15T15:01:33.329Z,100341.21
2018-04-15T15:04:01.661Z,100346.59
2018-04-15T15:06:29.995Z,100343.33
2018-04-15T15:08:58.351Z,100341.83
2018-04-15T15:11:26.675Z,100348.25
2018-04-15T15:13:55.050Z,100343.83
2018-04-15T15:16:23.414Z,100342.42
2018-04-15T15:18:51.783Z,100333.69
2018-04-15T15:21:20.169Z,100340.71
2018-04-15T15:23:48.509Z,100334.75
2018-04-15T15:26:17.669Z,100334.28
2018-04-15T15:28:46.089Z,100341.89
2018-04-15T15:31:15.216Z,100336.53
2018-04-15T15:33:43.579Z,100327.20
2018-04-15T15:36:11.946Z,100333.98
2018-04-15T15:38:40.312Z,100325.28
2018-04-15T15:41:09.237Z,100315.02
2018-04-15T15:43:38.404Z,100304.46
2018-04-15T15:46:06.784Z,100312.88
2018-04-15T15:48:35.935Z,100311.95
2018-04-15T15:51:04.490Z,100312.15
2018-04-15T15:53:33.671Z,100299.02
2018-04-15T15:56:02.114Z,100298.00
2018-04-15T15:58:30.720Z,100299.19
2018-04-15T16:00:59.849Z,100293.78
2018-04-15T16:03:28.325Z,100291.14
2018-04-15T16:05:56.686Z,100286.66
2018-04-15T16:08:25.151Z,100289.72
2018-04-15T16:10:53.565Z,100294.77
2018-04-15T16:13:22.194Z,100290.02
2018-04-15T16:15:50.515Z,100289.23
2018-04-15T16:18:18.940Z,100285.80
2018-04-15T16:20:48.649Z,100292.56
2018-04-15T16:23:16.986Z,100294.98
2018-04-15T16:25:45.409Z,100289.39
2018-04-15T16:28:13.848Z,100289.45
2018-04-15T16:30:42.473Z,100301.05
2018-04-15T16:33:11.281Z,100292.27
2018-04-15T16:35:39.772Z,100284.48
2018-04-15T16:38:08.182Z,100288.02
2018-04-15T16:40:36.599Z,100283.84
2018-04-15T16:43:05.515Z,100280.45
2018-04-15T16:45:33.936Z,100287.89
2018-04-15T16:48:02.561Z,100287.13
2018-04-15T16:50:31.995Z,100296.83
2018-04-15T16:53:00.713Z,100297.70
2018-04-15T16:55:29.046Z,100292.09
2018-04-15T16:57:57.407Z,100292.84
2018-04-15T17:00:25.770Z,100296.48
2018-04-15T17:03:11.682Z,100297.66
2018-04-15T17:05:41.013Z,100296.98
2018-04-15T17:08:09.383Z,100294.02
2018-04-15T17:10:37.719Z,100296.52
2018-04-15T17:13:06.848Z,100300.98
2018-04-15T17:15:35.210Z,100303.98
2018-04-15T17:18:04.596Z,100305.45
2018-04-15T17:20:33.867Z,100311.17
2018-04-15T17:23:02.344Z,100312.14
2018-04-15T17:25:30.774Z,100308.66
2018-04-15T17:28:00.633Z,100309.92
2018-04-15T17:30:29.018Z,100301.68
2018-04-15T17:32:57.370Z,100287.45
2018-04-15T17:35:26.580Z,100284.50
2018-04-15T17:37:54.991Z,100284.20
2018-04-15T17:40:23.615Z,100288.52
2018-04-15T17:42:52.728Z,100289.31
2018-04-15T17:45:21.099Z,100298.48
2018-04-15T17:47:50.212Z,100309.20
2018-04-15T17:50:18.587Z,100307.53
2018-04-15T17:52:47.073Z,100310.78
2018-04-15T17:55:15.400Z,100309.48
2018-04-15T17:57:43.766Z,100307.08
2018-04-15T18:00:12.084Z,100316.17
2018-04-15T18:02:40.481Z,100314.23
2018-04-15T18:05:09.176Z,100306.92
2018-04-15T18:07:39.206Z,100310.27
2018-04-15T18:10:08.704Z,100300.48
2018-04-15T18:12:37.487Z,100296.63
2018-04-15T18:15:05.828Z,100301.05
2018-04-15T18:17:34.959Z,100301.83
2018-04-15T18:20:03.288Z,100305.13
2018-04-15T18:22:31.612Z,100316.39
2018-04-15T18:25:00.443Z,100316.06
2018-04-15T18:27:28.770Z,100321.36
2018-04-15T18:29:57.514Z,100330.87
2018-04-15T18:32:26.627Z,100336.79
2018-04-15T18:34:54.998Z,100333.86
2018-04-15T18:37:24.097Z,100336.20
2018-04-15T18:39:53.225Z,100340.39
2018-04-15T18:42:21.619Z,100340.31
2018-04-15T18:44:51.103Z,100350.02
2018-04-15T18:47:19.486Z,100354.84
2018-04-15T18:49:47.852Z,100363.17
2018-04-15T18:52:16.213Z,100364.05
2018-04-15T18:54:45.825Z,100366.29
2018-04-15T18:57:14.979Z,100366.46
2018-04-15T18:59:44.147Z,100371.03
2018-04-15T19:02:12.536Z,100362.85
2018-04-15T19:04:41.615Z,100361.55
2018-04-15T19:07:09.999Z,100355.42
2018-04-15T19:09:38.367Z,100355.89
2018-04-15T19:12:09.492Z,100350.05
2018-04-15T19:14:39.043Z,100354.19
2018-04-15T19:17:07.425Z,100354.82
2018-04-15T19:19:35.818Z,100355.52
2018-04-15T19:22:04.160Z,100352.64
2018-04-15T19:24:32.583Z,100349.22
2018-04-15T19:27:01.295Z,100355.63
2018-04-15T19:29:29.663Z,100360.33
2018-04-15T19:31:58.758Z,100356.02
2018-04-15T19:34:28.864Z,100355.63
2018-04-15T19:36:57.965Z,100354.86
2018-04-15T19:39:27.514Z,100352.36
2018-04-15T19:41:56.810Z,100346.31
2018-04-15T19:44:25.201Z,100347.98
2018-04-15T19:46:54.224Z,100346.41
2018-04-15T19:49:22.624Z,100342.30
2018-04-15T19:51:51.725Z,100345.62
2018-04-15T19:54:20.863Z,100347.12
2018-04-15T19:56:49.186Z,100345.21
2018-04-15T19:59:18.715Z,100349.75
2018-04-15T20:01:47.080Z,100354.70
2018-04-15T20:04:16.192Z,100349.47
2018-04-15T20:06:45.325Z,100346.67
2018-04-15T20:09:13.678Z,100349.23
2018-04-15T20:11:42.084Z,100351.53
2018-04-15T20:14:10.457Z,100355.95
2018-04-15T20:16:38.794Z,100357.75
2018-04-15T20:19:07.174Z,100350.69
2018-04-15T20:21:35.513Z,100350.44
2018-04-15T20:24:03.891Z,100347.77
2018-04-15T20:26:32.274Z,100352.02
2018-04-15T20:29:00.594Z,100351.00
2018-04-15T20:31:28.922Z,100347.60
2018-04-15T20:33:57.316Z,100346.61
2018-04-15T20:36:26.428Z,100340.88
2018-04-15T20:38:55.521Z,100338.64
2018-04-15T20:41:24.632Z,100344.43
2018-04-15T20:43:53.084Z,100335.77
2018-04-15T20:46:22.198Z,100336.15
2018-04-15T20:48:50.520Z,100339.41
2018-04-15T20:51:18.913Z,100327.06
2018-04-15T20:53:47.229Z,100318.47
2018-04-15T20:56:16.356Z,100314.00
2018-04-15T20:58:46.544Z,100305.84
2018-04-15T21:01:15.702Z,100305.31
2018-04-15T21:03:44.030Z,100309.05
2018-04-15T21:06:12.373Z,100315.89
2018-04-15T21:08:40.770Z,100311.93
2018-04-15T21:11:09.881Z,100318.76
2018-04-15T21:13:38.207Z,100319.25
2018-04-15T21:16:06.604Z,100313.53
2018-04-15T21:18:34.941Z,100308.37
2018-04-15T21:21:03.273Z,100314.56
2018-04-15T21:23:32.398Z,100308.30
2018-04-15T21:26:01.535Z,100299.09
2018-04-15T21:28:29.844Z,100298.83
2018-04-15T21:30:58.975Z,100300.03
2018-04-15T21:33:27.350Z,100301.34
2018-04-15T21:35:55.702Z,100297.50
2018-04-15T21:38:24.037Z,100294.25
2018-04-15T21:40:52.404Z,100296.51
2018-04-15T21:43:20.737Z,100289.23
2018-04-15T21:45:49.083Z,100289.08
2018-04-15T21:48:17.460Z,100292.10
2018-04-15T21:50:45.787Z,100300.50
2018-04-15T21:53:14.158Z,100292.42
2018-04-15T21:55:42.476Z,100295.78
2018-04-15T21:58:10.820Z,100297.09
2018-04-15T22:00:39.173Z,100297.92
2018-04-15T22:03:07.549Z,100292.23
2018-04-15T22:05:36.674Z,100286.41
2018-04-15T22:08:05.033Z,100292.48
2018-04-15T22:10:33.413Z,100286.20
2018-04-15T22:13:07.496Z,100276.72
2018-04-15T22:15:35.868Z,100282.27
2018-04-15T22:18:04.985Z,100288.58
2018-04-15T22:20:34.112Z,100287.63
2018-04-15T22:23:02.490Z,100284.56
2018-04-15T22:25:30.868Z,100288.52
2018-04-15T22:27:59.200Z,100290.52
2018-04-15T22:30:28.300Z,100277.78
2018-04-15T22:32:57.424Z,100284.70
2018-04-15T22:35:25.789Z,100284.55
2018-04-15T22:37:54.129Z,100287.16
2018-04-15T22:40:22.489Z,100278.70
2018-04-15T22:42:50.842Z,100270.90
2018-04-15T22:45:19.201Z,100278.38
2018-04-15T22:47:52.975Z,100280.81
2018-04-15T22:50:21.411Z,100281.50
2018-04-15T22:52:49.768Z,100281.93
2018-04-15T22:55:18.465Z,100278.83
2018-04-15T22:57:47.176Z,100274.75
2018-04-15T23:00:15.505Z,100275.13
2018-04-15T23:02:44.629Z,100271.81
2018-04-15T23:05:12.945Z,100265.53
2018-04-15T23:07:41.342Z,100270.80
2018-04-15T23:10:10.428Z,100264.88
2018-04-15T23:12:38.731Z,100264.82
2018-04-15T23:15:07.852Z,100268.38
2018-04-15T23:17:36.218Z,100272.72
2018-04-15T23:20:04.588Z,100274.73
2018-04-15T23:22:33.551Z,100275.11
2018-04-15T23:25:01.925Z,100270.22
2018-04-15T23:27:30.266Z,100273.38
2018-04-15T23:29:58.601Z,100278.89
2018-04-15T23:32:27.749Z,100280.80
2018-04-15T23:34:56.102Z,100281.08
2018-04-15T23:37:24.407Z,100272.83
2018-04-15T23:39:52.834Z,100265.58
2018-04-15T23:42:21.914Z,100263.00
2018-04-15T23:44:51.029Z,100265.20
2018-04-15T23:47:19.352Z,100259.70
2018-04-15T23:49:47.716Z,100265.09
2018-04-15T23:52:16.057Z,100265.41
2018-04-15T23:54:44.421Z,100256.67
2018-04-15T23:57:13.584Z,100255.95
2018-04-15T23:59:41.905Z,100253.41
